Time;durP1;ratioP1;P1;durP2;ratioP2;P2;SDS_P1;SDS_P2;PMS_P1;PMS_P2;Temp;Humidity;BMP_temperature;BMP_pressure;BME280_temperature;BME280_humidity;BME280_pressure;Samples;Min_cycle;Max_cycle;Signal;HPM_P1;HPM_P2
2022/09/06 00:01:41;;;;;;;7.75;6.28;;;21.50;68.30;;;;;;5010039;28;20073;-75
2022/09/06 00:04:07;;;;;;;8.30;6.20;;;21.40;68.50;;;;;;5009996;28;20071;-74
2022/09/06 00:06:33;;;;;;;8.32;6.25;;;21.40;68.60;;;;;;5010036;28;20106;-74
2022/09/06 00:08:59;;;;;;;11.13;6.72;;;21.30;68.70;;;;;;4993863;28;20081;-74
2022/09/06 00:11:25;;;;;;;9.55;6.53;;;21.30;69.00;;;;;;5010278;28;20488;-75
2022/09/06 00:13:51;;;;;;;7.47;6.38;;;21.20;69.30;;;;;;5043018;28;20108;-75
2022/09/06 00:16:19;;;;;;;7.22;6.13;;;21.20;69.50;;;;;;5009919;28;20171;-74
2022/09/06 00:18:45;;;;;;;6.40;5.80;;;21.20;69.60;;;;;;5009790;28;20045;-74
2022/09/06 00:21:26;;;;;;;8.43;6.70;;;21.10;69.80;;;;;;5009957;28;20409;-76
2022/09/06 00:23:52;;;;;;;7.80;7.03;;;21.10;70.30;;;;;;5009973;28;20061;-74
2022/09/06 00:26:19;;;;;;;9.35;6.40;;;21.00;70.10;;;;;;5009859;28;20501;-73
2022/09/06 00:28:45;;;;;;;11.32;7.28;;;21.00;70.30;;;;;;5042730;28;20046;-74
2022/09/06 00:31:28;;;;;;;7.22;6.55;;;21.00;70.40;;;;;;5009815;28;20038;-75
2022/09/06 00:33:54;;;;;;;9.10;7.68;;;20.90;71.10;;;;;;5009764;28;20053;-75
2022/09/06 00:36:21;;;;;;;9.27;7.32;;;20.90;70.60;;;;;;5009137;28;20062;-75
2022/09/06 00:38:46;;;;;;;8.77;6.68;;;20.80;70.70;;;;;;5009567;28;20050;-75
2022/09/06 00:41:14;;;;;;;8.63;7.50;;;20.80;70.90;;;;;;5009253;28;20500;-75
2022/09/06 00:43:40;;;;;;;7.40;6.70;;;20.80;71.00;;;;;;5009308;28;20046;-74
2022/09/06 00:46:09;;;;;;;7.20;6.47;;;20.80;70.70;;;;;;5009204;28;20042;-74
2022/09/06 00:48:37;;;;;;;8.88;6.40;;;20.90;70.60;;;;;;5009442;28;20048;-74
2022/09/06 00:51:06;;;;;;;10.05;6.90;;;20.90;70.50;;;;;;5042529;28;20102;-74
2022/09/06 00:53:31;;;;;;;8.02;6.88;;;20.90;70.50;;;;;;5009650;28;20065;-76
2022/09/06 00:55:58;;;;;;;8.43;6.88;;;20.80;70.40;;;;;;5009360;28;20474;-76
2022/09/06 00:58:25;;;;;;;7.13;6.50;;;20.80;70.80;;;;;;5009342;28;20080;-75
2022/09/06 01:00:50;;;;;;;7.20;6.50;;;20.80;70.40;;;;;;5009164;28;20085;-74
2022/09/06 01:03:17;;;;;;;9.65;6.72;;;20.80;70.30;;;;;;5009482;28;20081;-75
2022/09/06 01:05:52;;;;;;;7.57;6.57;;;20.80;70.20;;;;;;5041941;28;20057;-74
2022/09/06 01:08:52;;;;;;;7.38;5.85;;;20.80;70.30;;;;;;5009229;28;20066;-74
2022/09/06 01:11:36;;;;;;;7.20;6.22;;;20.90;69.70;;;;;;5009342;28;20511;-74
2022/09/06 01:14:36;;;;;;;10.20;6.70;;;20.80;69.80;;;;;;5009057;28;20038;-74
2022/09/06 01:17:19;;;;;;;7.35;6.57;;;20.80;69.80;;;;;;5009063;28;20103;-75
2022/09/06 01:20:08;;;;;;;8.30;6.35;;;20.80;69.60;;;;;;5009128;28;20054;-75
2022/09/06 01:22:39;;;;;;;8.82;6.57;;;20.90;69.80;;;;;;5008861;28;20061;-75
2022/09/06 01:25:24;;;;;;;6.90;6.20;;;20.80;69.80;;;;;;5008858;28;20042;-73
2022/09/06 01:28:21;;;;;;;7.40;6.63;;;20.80;69.90;;;;;;5008745;28;20544;-74
2022/09/06 01:30:55;;;;;;;7.65;6.45;;;20.80;69.80;;;;;;5009508;28;20098;-75
2022/09/06 01:33:31;;;;;;;6.68;6.07;;;20.70;69.80;;;;;;5012244;28;20046;-76
2022/09/06 01:36:01;;;;;;;7.93;6.25;;;20.70;69.80;;;;;;5012047;28;20429;-76
2022/09/06 01:38:27;;;;;;;7.00;6.30;;;20.70;69.80;;;;;;5011906;28;20045;-75
2022/09/06 01:40:53;;;;;;;7.97;6.50;;;20.70;69.70;;;;;;5011962;28;20054;-75
2022/09/06 01:43:30;;;;;;;8.95;6.25;;;20.70;69.70;;;;;;5012069;28;20381;-74
2022/09/06 01:46:18;;;;;;;7.88;5.55;;;20.70;69.50;;;;;;4995530;28;20053;-74
2022/09/06 01:49:06;;;;;;;8.45;5.82;;;20.70;69.20;;;;;;5012086;28;20053;-75
2022/09/06 01:51:52;;;;;;;7.47;6.03;;;20.70;69.40;;;;;;4995409;28;20498;-73
2022/09/06 01:54:37;;;;;;;10.90;6.38;;;20.60;69.50;;;;;;5011896;28;20037;-74
2022/09/06 01:57:33;;;;;;;8.23;5.90;;;20.60;69.50;;;;;;5011963;28;20073;-74
2022/09/06 02:00:08;;;;;;;6.85;5.78;;;20.60;69.40;;;;;;5011921;28;20141;-75
2022/09/06 02:03:04;;;;;;;7.55;6.45;;;20.60;69.40;;;;;;4994873;28;20049;-74
2022/09/06 02:05:42;;;;;;;9.80;5.90;;;20.60;69.40;;;;;;4995181;28;20125;-76
2022/09/06 02:08:24;;;;;;;8.48;6.80;;;20.60;69.40;;;;;;5011323;28;20083;-75
2022/09/06 02:11:06;;;;;;;7.13;5.80;;;20.60;69.60;;;;;;5044291;28;20501;-74
2022/09/06 02:13:46;;;;;;;6.93;6.32;;;20.50;69.80;;;;;;5011381;28;20091;-73
2022/09/06 02:16:18;;;;;;;6.97;5.70;;;20.50;69.70;;;;;;5011400;28;20077;-75
2022/09/06 02:18:58;;;;;;;8.98;6.00;;;20.40;70.10;;;;;;5011627;28;20378;-75
2022/09/06 02:21:32;;;;;;;6.70;6.00;;;20.40;70.20;;;;;;5011169;28;20050;-74
2022/09/06 02:24:03;;;;;;;7.32;5.85;;;20.40;70.20;;;;;;5011521;28;20144;-75
2022/09/06 02:26:33;;;;;;;7.40;5.97;;;20.40;70.10;;;;;;5011342;28;20084;-74
2022/09/06 02:28:59;;;;;;;8.80;5.72;;;20.40;70.10;;;;;;5011409;28;20042;-76
2022/09/06 02:31:30;;;;;;;7.82;6.13;;;20.40;70.40;;;;;;5044345;28;20045;-76
2022/09/06 02:33:57;;;;;;;10.65;5.93;;;20.40;70.50;;;;;;5011389;28;20084;-73
2022/09/06 02:36:23;;;;;;;6.30;5.72;;;20.40;70.40;;;;;;5011066;28;20090;-75
2022/09/06 02:38:48;;;;;;;7.97;5.78;;;20.40;70.10;;;;;;5011219;28;20054;-76
2022/09/06 02:41:18;;;;;;;7.95;5.70;;;20.40;70.10;;;;;;5011329;28;20053;-75
2022/09/06 02:43:43;;;;;;;9.02;6.07;;;20.40;70.10;;;;;;5011061;28;20056;-76
2022/09/06 02:46:09;;;;;;;6.43;5.82;;;20.40;70.00;;;;;;5010955;28;20042;-74
2022/09/06 02:48:35;;;;;;;6.80;6.10;;;20.40;69.50;;;;;;5010987;28;20042;-75
2022/09/06 02:51:05;;;;;;;6.82;6.13;;;20.30;69.60;;;;;;5011084;28;20034;-75
2022/09/06 02:53:31;;;;;;;8.65;5.75;;;20.30;69.80;;;;;;5010803;28;20574;-75
2022/09/06 02:55:57;;;;;;;9.40;6.40;;;20.20;69.80;;;;;;5011048;28;20041;-75
2022/09/06 02:58:23;;;;;;;6.88;6.20;;;20.20;69.70;;;;;;5010956;28;20053;-75
2022/09/06 03:00:50;;;;;;;7.10;5.57;;;20.20;69.70;;;;;;5010656;28;20518;-75
2022/09/06 03:03:16;;;;;;;9.75;7.22;;;20.20;69.80;;;;;;5010600;28;20050;-74
2022/09/06 03:05:45;;;;;;;8.60;6.38;;;20.20;69.90;;;;;;5010515;28;20053;-74
2022/09/06 03:08:11;;;;;;;8.57;6.85;;;20.20;69.90;;;;;;5044314;28;20104;-74
2022/09/06 03:10:36;;;;;;;7.22;6.53;;;20.20;70.20;;;;;;5011117;28;20501;-75
2022/09/06 03:13:02;;;;;;;9.23;6.65;;;20.10;70.50;;;;;;5011280;28;20185;-75
2022/09/06 03:15:28;;;;;;;7.90;6.75;;;20.10;70.70;;;;;;5011360;28;20053;-75
2022/09/06 03:17:58;;;;;;;7.15;6.40;;;20.00;70.80;;;;;;5011134;28;20046;-75
2022/09/06 03:20:24;;;;;;;10.02;7.22;;;20.00;71.00;;;;;;5011473;28;20088;-75
2022/09/06 03:22:50;;;;;;;8.25;7.53;;;20.00;71.10;;;;;;4994729;28;20128;-74
2022/09/06 03:25:16;;;;;;;14.00;8.50;;;20.00;71.10;;;;;;4994845;28;20125;-75
2022/09/06 03:27:42;;;;;;;8.65;7.75;;;20.00;71.30;;;;;;5011151;28;20045;-75
2022/09/06 03:30:08;;;;;;;8.95;7.95;;;19.90;71.40;;;;;;4994752;28;20045;-75
2022/09/06 03:32:34;;;;;;;8.20;7.55;;;19.90;71.60;;;;;;5011213;28;20374;-75
2022/09/06 03:35:00;;;;;;;8.90;6.95;;;19.90;71.70;;;;;;5011099;28;20038;-75
2022/09/06 03:37:26;;;;;;;8.00;6.78;;;19.90;71.80;;;;;;4994268;28;20058;-75
2022/09/06 03:39:51;;;;;;;8.43;7.32;;;19.90;71.90;;;;;;5010773;28;20046;-74
2022/09/06 03:42:17;;;;;;;11.93;7.00;;;19.90;72.00;;;;;;5010809;28;20098;-75
2022/09/06 03:44:43;;;;;;;8.95;6.70;;;19.90;72.00;;;;;;5010724;28;20053;-76
2022/09/06 03:47:08;;;;;;;8.40;6.85;;;19.90;72.00;;;;;;5010713;28;20041;-75
2022/09/06 03:49:34;;;;;;;8.82;7.93;;;19.90;72.00;;;;;;4978359;28;20049;-75
2022/09/06 03:52:00;;;;;;;8.35;7.35;;;19.90;72.10;;;;;;5010309;28;20474;-74
2022/09/06 03:54:27;;;;;;;8.07;7.32;;;19.90;72.10;;;;;;4993897;28;20040;-75
2022/09/06 03:56:54;;;;;;;8.55;7.57;;;19.80;72.30;;;;;;5010193;28;20115;-75
2022/09/06 03:59:19;;;;;;;10.40;7.72;;;19.90;72.50;;;;;;5010271;28;20108;-76
2022/09/06 04:01:45;;;;;;;9.43;7.20;;;19.80;72.50;;;;;;5010296;28;20050;-76
2022/09/06 04:04:11;;;;;;;9.38;8.38;;;19.80;72.60;;;;;;5010609;28;20049;-76
2022/09/06 04:06:36;;;;;;;8.80;7.68;;;19.80;72.60;;;;;;5009964;28;20050;-75
2022/09/06 04:09:03;;;;;;;11.52;8.23;;;19.80;72.70;;;;;;5009646;28;20418;-75
2022/09/06 04:11:28;;;;;;;10.68;8.48;;;19.80;73.10;;;;;;5009786;28;20485;-75
2022/09/06 04:13:54;;;;;;;8.57;7.78;;;19.70;73.20;;;;;;5009719;28;20091;-76
2022/09/06 04:16:20;;;;;;;11.05;10.07;;;19.70;73.80;;;;;;5010013;28;20132;-77
2022/09/06 04:18:45;;;;;;;10.07;9.02;;;19.60;74.10;;;;;;5010102;28;20042;-75
2022/09/06 04:21:11;;;;;;;9.93;9.00;;;19.60;74.50;;;;;;5010271;28;20398;-74
2022/09/06 04:23:37;;;;;;;11.27;8.68;;;19.50;74.80;;;;;;4993732;28;20490;-75
2022/09/06 04:26:03;;;;;;;10.38;9.45;;;19.60;75.10;;;;;;5009667;28;20054;-74
2022/09/06 04:28:29;;;;;;;18.13;8.40;;;19.50;75.50;;;;;;5009519;28;20048;-74
2022/09/06 04:30:57;;;;;;;11.20;9.63;;;19.50;76.20;;;;;;5009655;28;20046;-76
2022/09/06 04:33:24;;;;;;;9.40;8.50;;;19.40;75.80;;;;;;5009425;28;20045;-75
2022/09/06 04:35:55;;;;;;;8.25;6.93;;;19.40;76.40;;;;;;5028015;28;20055;-75
2022/09/06 04:38:22;;;;;;;11.45;9.63;;;19.40;76.30;;;;;;5007964;28;20056;-75
2022/09/06 04:40:49;;;;;;;10.15;9.23;;;19.40;76.20;;;;;;5009359;28;20041;-75
2022/09/06 04:43:14;;;;;;;10.73;9.57;;;19.40;76.50;;;;;;5009358;28;20052;-75
2022/09/06 04:45:41;;;;;;;12.85;9.43;;;19.40;77.00;;;;;;5009326;28;20045;-74
2022/09/06 04:48:07;;;;;;;9.77;8.07;;;19.30;77.30;;;;;;5009381;28;20041;-80
2022/09/06 04:50:32;;;;;;;11.35;10.25;;;19.30;77.50;;;;;;4993161;28;20038;-76
2022/09/06 04:52:58;;;;;;;10.95;9.82;;;19.20;77.00;;;;;;5009406;28;20060;-76
2022/09/06 04:55:25;;;;;;;10.65;9.65;;;19.20;77.30;;;;;;5009211;28;20486;-76
2022/09/06 04:57:51;;;;;;;14.00;10.20;;;19.10;77.80;;;;;;5009342;28;20042;-76
2022/09/06 05:00:18;;;;;;;11.88;10.70;;;19.10;78.40;;;;;;4993055;28;20085;-77
2022/09/06 05:02:43;;;;;;;12.10;11.00;;;19.10;78.50;;;;;;5009019;28;20049;-77
2022/09/06 05:05:09;;;;;;;11.25;10.23;;;19.00;78.30;;;;;;4992845;28;20042;-76
2022/09/06 05:07:35;;;;;;;12.63;11.45;;;19.00;78.40;;;;;;4995744;28;20486;-76
2022/09/06 05:10:02;;;;;;;12.32;11.05;;;18.90;79.00;;;;;;5012136;28;20134;-75
2022/09/06 05:12:28;;;;;;;12.02;10.93;;;18.90;78.80;;;;;;5012000;28;20121;-76
2022/09/06 05:14:53;;;;;;;12.25;11.15;;;18.80;79.20;;;;;;5028546;28;20077;-75
2022/09/06 05:17:19;;;;;;;11.43;10.32;;;18.70;79.50;;;;;;5044799;28;20038;-74
2022/09/06 05:19:44;;;;;;;12.70;11.40;;;18.70;79.30;;;;;;5044447;28;20041;-75
2022/09/06 05:22:11;;;;;;;11.98;10.88;;;18.60;79.60;;;;;;5028232;28;20048;-75
2022/09/06 05:24:36;;;;;;;13.40;11.88;;;18.60;79.40;;;;;;5011205;28;20030;-74
2022/09/06 05:27:04;;;;;;;13.60;11.70;;;18.70;79.50;;;;;;5036048;28;20087;-74
2022/09/06 05:29:30;;;;;;;12.43;11.23;;;18.60;79.90;;;;;;5011514;28;20099;-75
2022/09/06 05:31:56;;;;;;;15.98;11.93;;;18.60;79.50;;;;;;4995038;28;20427;-76
2022/09/06 05:34:21;;;;;;;13.23;11.65;;;18.60;80.00;;;;;;5011271;28;20052;-75
2022/09/06 05:36:47;;;;;;;12.38;11.10;;;18.70;80.00;;;;;;5035920;28;20058;-75
2022/09/06 05:39:13;;;;;;;12.60;11.43;;;18.70;80.10;;;;;;5011024;28;20482;-76
2022/09/06 05:41:39;;;;;;;13.38;11.48;;;18.70;80.00;;;;;;4994875;28;20049;-75
2022/09/06 05:44:04;;;;;;;12.15;11.15;;;18.70;80.30;;;;;;5036425;28;20034;-74
2022/09/06 05:46:30;;;;;;;13.20;12.00;;;18.70;80.00;;;;;;5011098;28;20497;-76
2022/09/06 05:49:03;;;;;;;12.15;11.05;;;18.60;80.30;;;;;;5011397;28;20405;-75
2022/09/06 05:51:30;;;;;;;13.43;12.20;;;18.70;80.30;;;;;;5011463;28;20050;-75
2022/09/06 05:53:55;;;;;;;13.00;11.75;;;18.70;80.60;;;;;;5011672;28;20402;-73
2022/09/06 05:56:22;;;;;;;14.02;12.45;;;18.70;80.80;;;;;;5011059;28;20042;-74
2022/09/06 05:58:47;;;;;;;14.00;12.65;;;18.60;81.30;;;;;;4994936;28;20057;-73
2022/09/06 06:01:21;;;;;;;13.80;12.13;;;18.60;81.10;;;;;;5043881;28;20414;-73
2022/09/06 06:04:01;;;;;;;12.77;11.52;;;18.50;81.00;;;;;;5011264;28;20045;-73
2022/09/06 06:06:30;;;;;;;13.93;12.35;;;18.50;81.20;;;;;;5011264;28;20439;-73
2022/09/06 06:08:56;;;;;;;13.10;12.00;;;18.50;81.10;;;;;;5011363;28;20122;-74
2022/09/06 06:11:22;;;;;;;14.23;12.82;;;18.50;81.00;;;;;;5010322;28;20050;-74
2022/09/06 06:13:49;;;;;;;14.20;12.90;;;18.50;81.00;;;;;;5011117;28;20050;-74
2022/09/06 06:16:16;;;;;;;14.55;12.93;;;18.50;81.10;;;;;;5010653;28;20482;-73
2022/09/06 06:18:43;;;;;;;15.52;14.00;;;18.40;81.20;;;;;;5011168;28;20046;-73
2022/09/06 06:21:16;;;;;;;13.77;12.45;;;18.40;81.40;;;;;;5011301;28;20091;-74
2022/09/06 06:23:44;;;;;;;14.23;12.77;;;18.50;81.50;;;;;;5010975;28;20049;-75
2022/09/06 06:26:11;;;;;;;14.63;12.45;;;18.50;81.70;;;;;;4994556;28;20510;-74
2022/09/06 06:28:37;;;;;;;17.08;13.60;;;18.40;81.70;;;;;;5010818;28;20094;-74
2022/09/06 06:31:04;;;;;;;14.13;12.77;;;18.40;81.70;;;;;;5011040;28;20049;-74
2022/09/06 06:33:31;;;;;;;14.00;12.35;;;18.40;81.50;;;;;;4994771;28;20452;-73
2022/09/06 06:36:13;;;;;;;15.38;13.95;;;18.50;81.40;;;;;;5011058;28;20126;-74
2022/09/06 06:38:43;;;;;;;15.27;13.60;;;18.50;81.30;;;;;;5043715;28;20567;-74
2022/09/06 06:41:11;;;;;;;14.30;13.00;;;18.50;81.50;;;;;;5033326;27;20143;-74
2022/09/06 06:43:37;;;;;;;14.02;12.07;;;18.50;81.40;;;;;;4994359;28;20129;-74
2022/09/06 06:46:03;;;;;;;13.80;12.40;;;18.60;81.20;;;;;;5043554;28;20124;-74
2022/09/06 06:48:29;;;;;;;12.90;11.80;;;18.70;80.80;;;;;;5010527;28;20046;-73
2022/09/06 06:50:54;;;;;;;15.45;12.65;;;18.70;80.80;;;;;;5043754;28;20068;-74
2022/09/06 06:53:20;;;;;;;13.43;12.27;;;18.80;80.70;;;;;;5010530;28;20105;-74
2022/09/06 06:55:49;;;;;;;14.52;13.13;;;18.90;80.50;;;;;;5043466;28;20046;-74
2022/09/06 06:58:16;;;;;;;14.05;12.75;;;18.90;80.30;;;;;;5043496;28;20103;-74
2022/09/06 07:00:42;;;;;;;14.52;12.73;;;19.00;80.30;;;;;;5010629;28;20435;-74
2022/09/06 07:03:09;;;;;;;11.57;10.50;;;19.00;80.00;;;;;;4994195;28;20481;-74
2022/09/06 07:05:35;;;;;;;13.35;11.77;;;19.10;79.70;;;;;;5010291;28;20042;-74
2022/09/06 07:08:01;;;;;;;13.55;12.25;;;19.20;79.20;;;;;;5010481;28;20034;-74
2022/09/06 07:10:26;;;;;;;14.15;12.77;;;19.20;78.80;;;;;;5026895;28;20489;-74
2022/09/06 07:12:52;;;;;;;15.23;13.93;;;19.20;78.70;;;;;;5043193;28;20075;-75
2022/09/06 07:15:18;;;;;;;14.85;13.32;;;19.30;79.00;;;;;;5043246;28;20124;-74
2022/09/06 07:17:44;;;;;;;14.35;13.00;;;19.30;78.90;;;;;;5043137;28;20049;-74
2022/09/06 07:20:10;;;;;;;14.35;12.75;;;19.40;78.90;;;;;;5043064;28;20059;-75
2022/09/06 07:22:37;;;;;;;13.90;12.70;;;19.40;78.50;;;;;;5010077;28;20146;-74
2022/09/06 07:25:04;;;;;;;13.18;11.90;;;19.50;78.60;;;;;;5010187;28;20042;-74
2022/09/06 07:27:30;;;;;;;12.88;11.70;;;19.60;78.00;;;;;;5009910;28;20102;-74
2022/09/06 07:29:55;;;;;;;12.90;11.57;;;19.70;77.50;;;;;;5041870;28;20041;-75
2022/09/06 07:32:21;;;;;;;13.15;11.90;;;19.80;77.00;;;;;;5043128;28;20044;-75
2022/09/06 07:34:47;;;;;;;13.60;12.25;;;19.90;76.90;;;;;;5010105;28;20505;-74
2022/09/06 07:37:12;;;;;;;13.25;12.05;;;19.90;77.20;;;;;;5026209;28;20115;-74
2022/09/06 07:39:38;;;;;;;12.90;11.32;;;20.00;76.90;;;;;;5026191;28;20077;-73
2022/09/06 07:42:05;;;;;;;14.90;12.32;;;20.00;76.70;;;;;;5042701;28;20061;-74
2022/09/06 07:44:31;;;;;;;16.35;13.60;;;20.00;76.80;;;;;;5009759;28;20513;-73
2022/09/06 07:46:56;;;;;;;13.95;12.70;;;19.90;77.40;;;;;;5026118;28;20042;-74
2022/09/06 07:49:22;;;;;;;13.77;12.40;;;19.90;77.10;;;;;;5042794;28;20099;-73
2022/09/06 07:51:48;;;;;;;14.70;13.23;;;19.90;76.90;;;;;;5042543;28;20156;-74
2022/09/06 07:54:14;;;;;;;14.40;13.10;;;20.00;77.20;;;;;;5042595;28;20068;-73
2022/09/06 07:56:39;;;;;;;11.60;10.52;;;20.10;77.00;;;;;;5009517;28;20042;-74
2022/09/06 07:59:05;;;;;;;13.45;12.18;;;20.30;76.80;;;;;;4993207;28;20049;-74
2022/09/06 08:01:35;;;;;;;14.07;12.85;;;20.40;76.40;;;;;;5009751;28;20036;-74
2022/09/06 08:04:12;;;;;;;12.95;11.80;;;20.60;76.50;;;;;;5009488;28;20250;-74
2022/09/06 08:06:45;;;;;;;12.98;11.75;;;20.70;76.00;;;;;;5009363;28;20041;-74
2022/09/06 08:09:11;;;;;;;13.15;11.85;;;20.90;75.60;;;;;;5009566;28;20038;-74
2022/09/06 08:11:37;;;;;;;13.18;11.77;;;20.90;74.70;;;;;;5042389;28;20482;-74
2022/09/06 08:14:05;;;;;;;14.43;12.90;;;21.00;74.70;;;;;;5009626;28;20044;-74
2022/09/06 08:16:33;;;;;;;15.60;11.52;;;21.10;74.30;;;;;;5009590;28;20046;-74
2022/09/06 08:19:00;;;;;;;13.65;12.10;;;21.20;74.00;;;;;;5009446;28;20054;-74
2022/09/06 08:21:31;;;;;;;13.40;12.20;;;21.20;73.80;;;;;;5009176;28;20046;-74
2022/09/06 08:24:01;;;;;;;13.77;12.65;;;21.30;73.80;;;;;;5009191;28;20041;-74
2022/09/06 08:26:29;;;;;;;13.73;12.38;;;21.40;73.80;;;;;;5009428;28;20041;-74
2022/09/06 08:29:00;;;;;;;13.25;12.02;;;21.50;73.40;;;;;;5009049;28;20033;-74
2022/09/06 08:31:28;;;;;;;12.98;11.32;;;21.60;73.30;;;;;;5009340;28;20046;-74
2022/09/06 08:33:54;;;;;;;11.77;10.77;;;21.80;73.10;;;;;;5009002;28;20081;-73
2022/09/06 08:36:20;;;;;;;15.02;11.57;;;21.90;72.70;;;;;;5009033;28;20084;-74
2022/09/06 08:38:46;;;;;;;13.60;12.20;;;22.00;72.30;;;;;;5008979;28;20063;-74
2022/09/06 08:41:26;;;;;;;12.57;11.48;;;22.20;72.10;;;;;;5044836;28;20046;-74
2022/09/06 08:43:56;;;;;;;13.65;12.38;;;22.40;71.80;;;;;;5012545;28;20054;-74
2022/09/06 08:46:45;;;;;;;12.45;11.32;;;22.50;71.60;;;;;;5045555;28;20049;-74
2022/09/06 08:49:11;;;;;;;11.60;10.25;;;22.50;71.10;;;;;;5012142;28;20103;-74
2022/09/06 08:51:48;;;;;;;12.45;11.18;;;22.60;70.60;;;;;;5045391;28;20037;-74
2022/09/06 08:54:38;;;;;;;12.20;11.20;;;22.70;70.50;;;;;;5012374;28;20398;-75
2022/09/06 08:57:13;;;;;;;12.38;10.57;;;22.90;70.40;;;;;;5012551;28;20107;-74
2022/09/06 08:59:41;;;;;;;14.55;11.50;;;23.00;70.00;;;;;;5028655;28;20045;-74
2022/09/06 09:02:21;;;;;;;13.27;11.98;;;23.10;69.70;;;;;;5012274;28;20046;-74
2022/09/06 09:04:50;;;;;;;12.68;11.05;;;23.20;69.10;;;;;;5012411;28;20038;-74
2022/09/06 09:07:25;;;;;;;11.35;9.85;;;23.30;68.90;;;;;;5045220;28;20045;-74
2022/09/06 09:09:52;;;;;;;12.30;11.18;;;23.40;68.10;;;;;;4996013;28;20456;-74
2022/09/06 09:12:22;;;;;;;12.23;11.05;;;23.50;68.30;;;;;;5012135;28;20117;-74
2022/09/06 09:14:52;;;;;;;11.40;10.32;;;23.60;67.90;;;;;;4995777;28;20042;-74
2022/09/06 09:17:26;;;;;;;11.63;10.52;;;23.80;67.70;;;;;;5012120;28;20038;-75
2022/09/06 09:19:51;;;;;;;10.45;9.55;;;23.90;67.20;;;;;;5011885;28;20126;-74
2022/09/06 09:22:18;;;;;;;10.93;9.70;;;24.00;67.20;;;;;;5011983;28;20069;-74
2022/09/06 09:24:50;;;;;;;10.20;9.40;;;24.20;67.00;;;;;;5012154;28;20427;-74
2022/09/06 09:27:19;;;;;;;11.88;10.70;;;24.30;66.60;;;;;;5011907;28;20121;-75
2022/09/06 09:29:54;;;;;;;10.68;9.13;;;24.30;65.80;;;;;;5011736;28;20434;-74
2022/09/06 09:32:44;;;;;;;11.82;9.43;;;24.50;65.00;;;;;;5011803;28;20046;-74
2022/09/06 09:35:32;;;;;;;10.88;9.18;;;24.60;64.60;;;;;;5012077;28;20098;-75
2022/09/06 09:38:06;;;;;;;10.07;9.10;;;24.80;64.40;;;;;;5011461;28;20058;-74
2022/09/06 09:40:37;;;;;;;8.32;7.53;;;24.90;63.50;;;;;;5011761;28;20042;-75
2022/09/06 09:43:18;;;;;;;9.07;6.95;;;24.90;63.00;;;;;;5011891;28;20060;-74
2022/09/06 09:45:44;;;;;;;9.82;7.80;;;25.00;62.10;;;;;;5011532;28;20565;-74
2022/09/06 09:48:27;;;;;;;9.00;8.15;;;25.20;62.10;;;;;;5011503;28;20042;-75
2022/09/06 09:50:54;;;;;;;8.50;7.70;;;25.30;61.30;;;;;;4994975;28;20052;-74
2022/09/06 09:53:22;;;;;;;10.00;8.65;;;25.40;61.80;;;;;;5010850;28;20042;-74
2022/09/06 09:55:55;;;;;;;9.27;7.93;;;25.50;61.20;;;;;;5011500;28;20486;-74
2022/09/06 09:58:20;;;;;;;8.18;7.47;;;25.60;60.40;;;;;;4995037;28;20053;-75
2022/09/06 10:00:46;;;;;;;8.05;7.35;;;25.80;60.80;;;;;;5011360;28;20046;-74
2022/09/06 10:03:14;;;;;;;8.07;7.35;;;25.80;59.50;;;;;;5011275;28;20042;-73
2022/09/06 10:05:41;;;;;;;7.93;7.03;;;25.80;58.80;;;;;;5011152;28;20045;-74
2022/09/06 10:08:11;;;;;;;7.00;6.07;;;25.90;58.40;;;;;;4995116;28;20386;-75
2022/09/06 10:10:46;;;;;;;7.80;5.95;;;25.90;57.10;;;;;;4994900;28;20042;-75
2022/09/06 10:13:18;;;;;;;6.63;5.45;;;26.10;57.20;;;;;;5011218;28;20038;-75
2022/09/06 10:15:44;;;;;;;8.68;5.38;;;26.20;57.10;;;;;;5011172;28;20132;-75
2022/09/06 10:18:26;;;;;;;9.18;8.05;;;26.40;57.30;;;;;;5011034;28;20069;-74
2022/09/06 10:21:04;;;;;;;7.82;6.65;;;26.50;56.60;;;;;;5011388;28;20045;-74
2022/09/06 10:24:00;;;;;;;8.02;7.05;;;26.70;56.80;;;;;;5011056;28;20041;-75
2022/09/06 10:26:55;;;;;;;7.68;6.97;;;26.90;56.50;;;;;;4994587;28;20049;-74
2022/09/06 10:29:31;;;;;;;6.97;6.28;;;27.00;54.90;;;;;;5010841;28;20554;-73
2022/09/06 10:31:57;;;;;;;9.38;7.30;;;27.00;55.00;;;;;;5011333;28;20110;-75
2022/09/06 10:34:57;;;;;;;8.10;7.25;;;27.20;55.10;;;;;;5010875;28;20494;-75
2022/09/06 10:37:58;;;;;;;7.40;6.55;;;27.30;53.70;;;;;;5010632;28;20062;-74
2022/09/06 10:40:42;;;;;;;7.10;6.00;;;27.40;53.70;;;;;;5010810;28;20050;-75
2022/09/06 10:43:16;;;;;;;6.25;5.53;;;27.50;53.10;;;;;;5011002;28;20494;-74
2022/09/06 10:46:00;;;;;;;6.75;6.03;;;27.60;53.20;;;;;;5010825;28;20061;-75
2022/09/06 10:48:34;;;;;;;8.20;6.70;;;27.80;52.70;;;;;;5010928;28;20033;-75
2022/09/06 10:51:06;;;;;;;7.40;6.38;;;27.90;53.20;;;;;;5010634;28;20037;-75
2022/09/06 10:53:50;;;;;;;8.80;7.80;;;27.90;52.50;;;;;;5010645;28;20045;-75
2022/09/06 10:56:19;;;;;;;7.85;7.15;;;28.00;51.90;;;;;;5010835;28;20046;-75
2022/09/06 10:59:10;;;;;;;8.45;7.60;;;28.00;52.50;;;;;;5010332;28;20124;-74
2022/09/06 11:01:41;;;;;;;7.85;6.97;;;28.10;52.50;;;;;;5010489;28;20048;-75
2022/09/06 11:04:10;;;;;;;7.90;7.10;;;28.20;52.80;;;;;;5043372;28;20053;-75
2022/09/06 11:06:43;;;;;;;9.73;7.93;;;28.40;52.30;;;;;;5010311;28;20042;-74
2022/09/06 11:09:21;;;;;;;7.40;6.53;;;28.40;52.20;;;;;;5010315;28;20042;-74
2022/09/06 11:12:11;;;;;;;5.35;4.85;;;28.60;52.30;;;;;;5010325;28;20099;-75
2022/09/06 11:14:39;;;;;;;6.50;5.90;;;28.70;49.70;;;;;;5010207;28;20117;-74
2022/09/06 11:17:16;;;;;;;6.30;5.72;;;28.80;49.60;;;;;;5010186;28;20052;-74
2022/09/06 11:20:02;;;;;;;7.85;7.07;;;28.90;49.00;;;;;;5010048;28;20049;-75
2022/09/06 11:22:42;;;;;;;6.50;5.90;;;29.00;49.50;;;;;;5010140;28;20549;-74
2022/09/06 11:25:28;;;;;;;9.48;5.70;;;29.10;48.70;;;;;;5010255;28;20052;-74
2022/09/06 11:27:58;;;;;;;7.25;5.07;;;29.20;47.50;;;;;;4993713;28;20477;-75
2022/09/06 11:30:25;;;;;;;6.68;6.07;;;29.20;48.50;;;;;;5009991;28;20050;-75
2022/09/06 11:33:20;;;;;;;6.18;5.50;;;29.30;48.20;;;;;;5010000;28;20045;-75
2022/09/06 11:35:45;;;;;;;8.07;5.85;;;29.50;48.40;;;;;;5009966;28;20049;-74
2022/09/06 11:38:17;;;;;;;6.93;6.35;;;29.50;47.90;;;;;;5009741;28;20065;-74
2022/09/06 11:40:49;;;;;;;7.53;6.78;;;29.60;46.90;;;;;;5009951;28;20246;-75
2022/09/06 11:43:45;;;;;;;6.38;5.80;;;29.60;47.10;;;;;;5010096;28;20436;-74
2022/09/06 11:46:34;;;;;;;6.90;4.15;;;29.80;46.00;;;;;;5009674;28;20038;-74
2022/09/06 11:49:09;;;;;;;8.52;6.32;;;29.90;44.70;;;;;;5009791;28;20095;-75
2022/09/06 11:51:43;;;;;;;6.70;6.10;;;30.00;46.10;;;;;;5009689;28;20038;-75
2022/09/06 11:54:15;;;;;;;6.75;5.72;;;30.00;46.70;;;;;;5009589;28;20042;-76
2022/09/06 11:56:52;;;;;;;5.88;5.28;;;30.00;45.40;;;;;;5009544;28;20056;-74
2022/09/06 11:59:18;;;;;;;7.03;6.43;;;29.90;45.60;;;;;;5009575;28;20128;-75
2022/09/06 12:02:06;;;;;;;7.07;6.35;;;30.20;45.90;;;;;;5009773;28;20140;-75
2022/09/06 12:05:06;;;;;;;10.68;6.70;;;30.30;46.40;;;;;;5009417;28;20037;-75
2022/09/06 12:07:37;;;;;;;7.45;6.82;;;30.30;46.30;;;;;;5031753;28;20061;-75
2022/09/06 12:10:30;;;;;;;7.55;5.78;;;30.30;46.10;;;;;;5009377;28;20077;-74
2022/09/06 12:12:57;;;;;;;6.35;5.75;;;30.30;46.40;;;;;;5009391;28;20075;-75
2022/09/06 12:15:44;;;;;;;6.30;5.70;;;30.30;45.90;;;;;;5008839;28;20052;-75
2022/09/06 12:18:41;;;;;;;13.15;8.43;;;30.20;46.10;;;;;;5009270;28;20097;-75
2022/09/06 12:21:28;;;;;;;6.95;6.35;;;30.20;45.90;;;;;;5009112;28;20042;-76
2022/09/06 12:23:53;;;;;;;7.07;6.40;;;30.30;45.80;;;;;;5016094;28;20046;-76
2022/09/06 12:26:53;;;;;;;6.05;5.55;;;30.30;45.70;;;;;;5009282;28;20045;-75
2022/09/06 12:29:26;;;;;;;5.75;4.35;;;30.20;44.40;;;;;;5009137;28;20048;-75
2022/09/06 12:32:02;;;;;;;6.72;5.47;;;30.40;44.40;;;;;;5009110;28;20099;-76
2022/09/06 12:34:32;;;;;;;5.20;4.28;;;30.60;44.40;;;;;;4992949;28;20513;-75
2022/09/06 12:37:06;;;;;;;5.32;3.83;;;30.50;43.90;;;;;;5008893;28;20093;-75
2022/09/06 12:39:33;;;;;;;5.75;3.70;;;30.30;43.60;;;;;;5009297;28;20494;-75
2022/09/06 12:42:20;;;;;;;5.28;3.85;;;30.30;44.00;;;;;;5042380;28;20046;-75
2022/09/06 12:44:50;;;;;;;6.15;2.92;;;30.20;43.50;;;;;;5041975;28;20049;-75
2022/09/06 12:47:24;;;;;;;8.00;3.70;;;30.50;43.80;;;;;;5008850;28;20046;-76
2022/09/06 12:50:13;;;;;;;5.57;3.28;;;30.30;43.60;;;;;;5008848;28;20166;-75
2022/09/06 12:53:00;;;;;;;3.58;3.28;;;30.10;44.20;;;;;;5008809;28;20494;-76
2022/09/06 12:55:31;;;;;;;3.33;3.03;;;30.10;43.70;;;;;;5008874;28;20046;-75
2022/09/06 12:57:58;;;;;;;5.75;4.15;;;29.90;43.70;;;;;;5008778;28;20124;-75
2022/09/06 13:00:31;;;;;;;11.55;4.85;;;29.60;44.70;;;;;;5041844;28;20054;-75